createdAt,value
2023-02-24T00:00:10.802Z,57.18
2023-02-24T00:01:10.790Z,58.17
2023-02-24T00:02:10.846Z,60.28
2023-02-24T00:03:10.864Z,50.07
2023-02-24T00:04:10.765Z,43.93
2023-02-24T00:05:10.766Z,60.28
2023-02-24T00:06:10.759Z,45.97
2023-02-24T00:07:10.782Z,46.06
2023-02-24T00:08:13.629Z,50.57
2023-02-24T00:09:12.554Z,51.84
2023-02-24T00:10:10.707Z,59.57
2023-02-24T00:11:11.708Z,55.64
2023-02-24T00:12:10.769Z,55.64
2023-02-24T00:13:10.687Z,58.41
2023-02-24T00:14:10.682Z,39.03
2023-02-24T00:15:10.690Z,50.20
2023-02-24T00:16:10.702Z,57.70
2023-02-24T00:17:10.802Z,48.77
2023-02-24T00:18:11.650Z,53.80
2023-02-24T00:19:10.644Z,49.46
2023-02-24T00:20:10.632Z,44.80
2023-02-24T00:21:10.647Z,47.57
2023-02-24T00:22:10.640Z,47.75
2023-02-24T00:23:10.617Z,51.67
2023-02-24T00:26:00.722Z,39.73
2023-02-24T00:27:00.717Z,55.10
2023-02-24T00:28:00.705Z,59.68
2023-02-24T00:29:00.696Z,48.17
2023-02-24T00:30:00.687Z,43.85
2023-02-24T00:31:00.781Z,55.52
2023-02-24T00:32:01.193Z,48.91
2023-02-24T00:33:00.722Z,52.94
2023-02-24T00:34:01.771Z,45.58
2023-02-24T00:35:01.747Z,55.21
2023-02-24T00:36:01.739Z,51.41
2023-02-24T00:37:01.730Z,40.57
2023-02-24T00:38:01.719Z,45.18
2023-02-24T00:39:01.717Z,44.18
2023-02-24T00:40:01.713Z,45.04
2023-02-24T00:41:01.711Z,55.46
2023-02-24T00:42:01.691Z,60.23
2023-02-24T00:43:01.708Z,58.11
2023-02-24T00:44:02.620Z,64.23
2023-02-24T00:45:01.669Z,58.62
2023-02-24T00:46:01.667Z,41.81
2023-02-24T00:47:01.647Z,43.35
2023-02-24T00:48:01.643Z,48.15
2023-02-24T00:49:01.628Z,49.29
2023-02-24T00:50:01.696Z,52.50
2023-02-24T00:51:01.624Z,49.92
2023-02-24T00:52:01.608Z,53.40
2023-02-24T00:53:01.606Z,56.68
2023-02-24T00:54:01.600Z,47.05
2023-02-24T00:55:01.609Z,41.87
2023-02-24T00:56:01.574Z,42.16
2023-02-24T00:57:02.105Z,54.22
2023-02-24T00:58:01.568Z,59.38
2023-02-24T00:59:01.564Z,51.68
2023-02-24T01:00:01.547Z,46.22
2023-02-24T01:01:01.540Z,37.83
2023-02-24T01:02:01.548Z,38.61
2023-02-24T01:03:01.517Z,54.34
2023-02-24T01:04:01.599Z,45.23
2023-02-24T01:05:01.501Z,53.97
2023-02-24T01:06:01.498Z,47.33
2023-02-24T01:07:01.496Z,62.91
2023-02-24T01:09:48.355Z,60.13
2023-02-24T01:10:49.470Z,48.70
2023-02-24T01:11:49.485Z,53.07
2023-02-24T01:12:49.653Z,56.05
2023-02-24T01:13:49.417Z,43.01
2023-02-24T01:14:49.417Z,56.35
2023-02-24T01:15:49.449Z,48.98
2023-02-24T01:16:49.391Z,59.48
2023-02-24T01:17:49.389Z,53.31
2023-02-24T01:18:49.377Z,53.27
2023-02-24T01:19:49.429Z,40.41
2023-02-24T01:20:49.363Z,51.96
2023-02-24T01:21:50.234Z,61.36
2023-02-24T01:22:49.373Z,53.61
2023-02-24T01:23:49.338Z,61.62
2023-02-24T01:24:49.342Z,41.11
2023-02-24T01:25:49.344Z,54.64
2023-02-24T01:26:49.322Z,56.40
2023-02-24T01:27:49.334Z,58.14
2023-02-24T01:28:49.309Z,60.98
2023-02-24T01:29:49.312Z,54.80
2023-02-24T01:30:49.292Z,37.98
2023-02-24T01:31:50.023Z,48.98
2023-02-24T01:32:50.471Z,55.04
2023-02-24T01:33:49.266Z,49.91
2023-02-24T01:34:49.264Z,40.97
2023-02-24T01:35:49.247Z,57.47
2023-02-24T01:36:49.252Z,44.54
2023-02-24T01:37:49.236Z,47.96
2023-02-24T01:38:49.236Z,39.92
2023-02-24T01:39:49.241Z,63.12
2023-02-24T01:40:49.220Z,39.80
2023-02-24T01:41:49.216Z,59.48
2023-02-24T01:42:49.197Z,51.46
2023-02-24T01:43:49.194Z,54.77
2023-02-24T01:44:49.198Z,53.96
2023-02-24T01:45:49.181Z,54.08
2023-02-24T01:46:49.777Z,55.62
2023-02-24T01:47:49.157Z,60.92
2023-02-24T01:48:49.148Z,57.83
2023-02-24T01:49:49.142Z,50.21
2023-02-24T01:50:49.141Z,51.94
2023-02-24T01:51:49.130Z,60.16
2023-02-24T01:52:49.137Z,54.95
2023-02-24T01:53:49.117Z,57.04
2023-02-24T01:54:49.106Z,60.94
2023-02-24T01:55:49.094Z,49.52
2023-02-24T01:56:49.081Z,40.54
2023-02-24T01:57:49.084Z,64.33
2023-02-24T01:58:49.067Z,46.14
2023-02-24T01:59:49.056Z,40.11
2023-02-24T02:00:49.089Z,46.70
2023-02-24T02:01:49.109Z,49.97
2023-02-24T02:02:49.098Z,48.76
2023-02-24T02:03:49.025Z,37.34
2023-02-24T02:04:49.034Z,55.12
2023-02-24T02:05:49.014Z,56.36
2023-02-24T02:06:49.022Z,39.95
2023-02-24T02:07:49.009Z,52.09
2023-02-24T02:08:48.986Z,50.90
2023-02-24T02:09:48.981Z,44.91
2023-02-24T02:10:48.983Z,60.83
2023-02-24T02:11:48.966Z,51.48
2023-02-24T02:12:48.967Z,45.96
2023-02-24T02:13:49.028Z,59.50
2023-02-24T02:14:48.955Z,56.96
2023-02-24T02:15:48.954Z,42.78
2023-02-24T02:16:48.920Z,44.42
2023-02-24T02:17:48.944Z,55.27
2023-02-24T02:18:48.918Z,46.16
2023-02-24T02:19:48.897Z,38.70
2023-02-24T02:20:48.899Z,44.18
2023-02-24T02:21:48.880Z,48.84
2023-02-24T02:22:48.873Z,44.68
2023-02-24T02:23:49.832Z,53.73
2023-02-24T02:24:48.856Z,61.16
2023-02-24T02:25:48.834Z,56.27
2023-02-24T02:26:49.852Z,43.96
2023-02-24T02:27:48.830Z,53.81
2023-02-24T02:28:48.817Z,54.09
2023-02-24T02:29:48.816Z,49.49
2023-02-24T02:30:48.839Z,42.91
2023-02-24T02:31:48.884Z,55.92
2023-02-24T02:32:48.888Z,43.25
2023-02-24T02:33:48.788Z,48.97
2023-02-24T02:34:48.780Z,54.43
2023-02-24T02:35:48.771Z,48.74
2023-02-24T02:36:48.761Z,53.70
2023-02-24T02:37:48.742Z,53.62
2023-02-24T02:38:48.781Z,42.97
2023-02-24T02:39:48.739Z,39.47
2023-02-24T02:40:48.730Z,50.09
2023-02-24T02:41:48.729Z,52.11
2023-02-24T02:42:48.708Z,39.97
2023-02-24T02:43:48.706Z,45.81
2023-02-24T02:44:48.689Z,56.84
2023-02-24T02:45:48.712Z,54.88
2023-02-24T02:46:48.676Z,44.64
2023-02-24T02:47:48.664Z,42.43
2023-02-24T02:48:48.666Z,50.07
2023-02-24T02:49:48.646Z,56.49
2023-02-24T02:50:48.634Z,54.30
2023-02-24T02:51:48.629Z,56.64
2023-02-24T02:52:48.626Z,53.95
2023-02-24T02:53:48.617Z,51.80
2023-02-24T02:54:48.612Z,60.18
2023-02-24T02:55:52.272Z,57.04
2023-02-24T02:56:50.329Z,51.38
2023-02-24T02:57:48.580Z,57.99
2023-02-24T02:58:48.584Z,46.90
2023-02-24T02:59:52.247Z,45.86
2023-02-24T03:00:48.584Z,48.92
2023-02-24T03:01:48.566Z,43.50
2023-02-24T03:02:48.539Z,56.41
2023-02-24T03:03:48.533Z,42.86
2023-02-24T03:04:48.616Z,51.51
2023-02-24T03:05:48.515Z,51.10
2023-02-24T03:06:48.508Z,58.58
2023-02-24T03:07:48.504Z,54.56
2023-02-24T03:08:48.504Z,53.80
2023-02-24T03:09:48.494Z,52.02
2023-02-24T03:10:48.513Z,54.55
2023-02-24T03:11:50.311Z,55.60
2023-02-24T03:12:48.457Z,56.31
2023-02-24T03:13:48.460Z,48.88
2023-02-24T03:14:48.446Z,47.38
2023-02-24T03:15:48.457Z,48.32
2023-02-24T03:16:48.477Z,62.22
2023-02-24T03:17:48.420Z,57.65
2023-02-24T03:18:48.415Z,49.41
2023-02-24T03:19:48.407Z,53.02
2023-02-24T03:20:48.409Z,39.40
2023-02-24T03:21:48.393Z,53.69
2023-02-24T03:22:48.390Z,44.85
2023-02-24T03:23:48.385Z,53.78
2023-02-24T03:24:48.371Z,52.93
2023-02-24T03:25:48.371Z,44.08
2023-02-24T03:26:48.354Z,52.10
2023-02-24T03:27:48.350Z,41.89
2023-02-24T03:28:48.340Z,39.69
2023-02-24T03:29:48.332Z,49.91
2023-02-24T03:30:48.396Z,56.23
2023-02-24T03:31:48.441Z,48.47
2023-02-24T03:32:48.389Z,46.12
2023-02-24T03:33:48.300Z,45.50
2023-02-24T03:34:48.287Z,52.81
2023-02-24T03:35:48.290Z,52.85
2023-02-24T03:36:48.270Z,50.92
2023-02-24T03:37:48.266Z,57.74
2023-02-24T03:38:48.254Z,57.66
2023-02-24T03:39:48.248Z,53.94
2023-02-24T03:40:48.252Z,56.08
2023-02-24T03:41:48.236Z,53.28
2023-02-24T03:42:48.239Z,51.54
2023-02-24T03:43:48.221Z,54.19
2023-02-24T03:44:48.214Z,49.28
2023-02-24T03:45:48.220Z,53.86
2023-02-24T03:46:48.198Z,56.99
2023-02-24T03:47:48.199Z,55.92
2023-02-24T03:48:48.175Z,62.46
2023-02-24T03:49:48.175Z,56.07
2023-02-24T03:50:48.165Z,54.66
2023-02-24T03:51:48.159Z,48.94
2023-02-24T03:52:48.153Z,59.27
2023-02-24T03:53:48.146Z,59.14
2023-02-24T03:54:48.147Z,59.31
2023-02-24T03:55:48.772Z,61.54
2023-02-24T03:56:48.127Z,57.41
2023-02-24T03:57:48.105Z,57.62
2023-02-24T03:58:48.110Z,57.76
2023-02-24T03:59:48.091Z,55.13
2023-02-24T04:00:48.091Z,61.43
2023-02-24T04:01:48.071Z,57.40
2023-02-24T04:02:49.833Z,50.68
2023-02-24T04:03:48.062Z,54.45
2023-02-24T04:04:48.092Z,57.65
2023-02-24T04:05:48.038Z,58.23
2023-02-24T04:06:48.040Z,59.51
2023-02-24T04:07:48.040Z,54.65
2023-02-24T04:08:48.019Z,54.88
2023-02-24T04:09:48.013Z,57.27
2023-02-24T04:10:47.999Z,58.98
2023-02-24T04:11:47.993Z,63.93
2023-02-24T04:12:48.078Z,61.20
2023-02-24T04:13:47.973Z,46.47
2023-02-24T04:14:47.966Z,56.92
2023-02-24T04:15:47.971Z,61.47
2023-02-24T04:16:47.966Z,62.14
2023-02-24T04:17:47.943Z,59.60
2023-02-24T04:18:47.945Z,59.28
2023-02-24T04:19:47.939Z,62.26
2023-02-24T04:20:47.929Z,57.78
2023-02-24T04:21:47.910Z,63.23
2023-02-24T04:22:47.900Z,62.01
2023-02-24T04:23:47.920Z,65.20
2023-02-24T04:24:47.903Z,67.70
2023-02-24T04:25:47.881Z,64.35
2023-02-24T04:26:47.870Z,54.97
2023-02-24T04:27:47.870Z,63.01
2023-02-24T04:28:47.854Z,64.83
2023-02-24T04:29:47.852Z,63.87
2023-02-24T04:30:47.924Z,59.24
2023-02-24T04:31:47.968Z,61.83
2023-02-24T04:32:47.831Z,59.78
2023-02-24T04:33:47.814Z,64.50
2023-02-24T04:34:47.821Z,63.17
2023-02-24T04:35:47.805Z,62.38
2023-02-24T04:36:47.790Z,63.88
2023-02-24T04:37:47.808Z,62.73
2023-02-24T04:38:47.796Z,62.87
2023-02-24T04:39:47.770Z,67.22
2023-02-24T04:40:47.762Z,59.28
2023-02-24T04:41:47.752Z,62.56
2023-02-24T04:42:47.747Z,63.34
2023-02-24T04:43:47.742Z,60.90
2023-02-24T04:44:47.728Z,61.80
2023-02-24T04:45:47.720Z,63.17
2023-02-24T04:46:47.810Z,64.64
2023-02-24T04:47:47.704Z,61.99
2023-02-24T04:48:47.704Z,61.45
2023-02-24T04:49:47.702Z,61.69
2023-02-24T04:50:47.791Z,60.63
2023-02-24T04:51:47.681Z,64.34
2023-02-24T04:52:47.671Z,66.21
2023-02-24T04:53:47.661Z,68.25
2023-02-24T04:54:47.649Z,64.29
2023-02-24T04:55:47.643Z,60.46
2023-02-24T04:56:47.640Z,59.50
2023-02-24T04:57:47.630Z,59.81
2023-02-24T04:58:47.621Z,62.77
2023-02-24T04:59:47.608Z,62.81
2023-02-24T05:00:47.603Z,60.03
2023-02-24T05:01:47.599Z,67.14
2023-02-24T05:02:47.589Z,63.29
2023-02-24T05:03:47.660Z,63.63
2023-02-24T05:04:47.598Z,61.53
2023-02-24T05:05:47.576Z,60.88
2023-02-24T05:06:47.568Z,58.59
2023-02-24T05:07:47.556Z,62.52
2023-02-24T05:08:47.543Z,62.33
2023-02-24T05:09:47.539Z,57.71
2023-02-24T05:10:47.528Z,63.11
2023-02-24T05:11:47.520Z,63.29
2023-02-24T05:12:47.512Z,60.43
2023-02-24T05:13:48.357Z,63.43
2023-02-24T05:14:47.503Z,64.83
2023-02-24T05:15:48.349Z,59.66
2023-02-24T05:16:47.495Z,67.26
2023-02-24T05:17:49.353Z,64.49
2023-02-24T05:18:47.489Z,62.78
2023-02-24T05:19:47.480Z,66.46
2023-02-24T05:20:47.448Z,65.18
2023-02-24T05:21:48.285Z,62.90
2023-02-24T05:22:48.296Z,62.49
2023-02-24T05:23:47.453Z,62.35
2023-02-24T05:24:47.429Z,63.22
2023-02-24T05:25:47.407Z,66.69
2023-02-24T05:26:47.455Z,64.03
2023-02-24T05:27:47.400Z,63.20
2023-02-24T05:28:47.392Z,64.15
2023-02-24T05:29:47.377Z,60.88
2023-02-24T05:30:47.409Z,64.93
2023-02-24T05:31:47.471Z,65.89
2023-02-24T05:32:47.405Z,62.61
2023-02-24T05:33:47.357Z,62.75
2023-02-24T05:34:47.341Z,62.67
2023-02-24T05:35:47.324Z,62.96
2023-02-24T05:36:48.883Z,64.26
2023-02-24T05:37:47.326Z,67.84
2023-02-24T05:38:47.326Z,65.68
2023-02-24T05:39:47.311Z,66.31
2023-02-24T05:40:47.283Z,63.90
2023-02-24T05:41:47.278Z,60.34
2023-02-24T05:42:47.271Z,63.50
2023-02-24T05:43:47.273Z,63.50
2023-02-24T05:44:47.254Z,62.78
2023-02-24T05:45:47.261Z,62.90
2023-02-24T05:46:47.335Z,62.71
2023-02-24T05:47:47.232Z,61.95
2023-02-24T05:48:47.220Z,64.89
2023-02-24T05:49:47.259Z,64.68
2023-02-24T05:50:47.191Z,68.94
2023-02-24T05:51:48.220Z,65.95
2023-02-24T05:52:47.195Z,67.33
2023-02-24T05:53:47.198Z,67.81
2023-02-24T05:54:47.196Z,65.07
2023-02-24T05:55:47.913Z,66.00
2023-02-24T05:56:47.160Z,65.54
2023-02-24T05:57:47.146Z,65.17
2023-02-24T05:58:47.140Z,63.89
2023-02-24T05:59:47.129Z,64.19
2023-02-24T06:00:47.119Z,66.88
2023-02-24T06:01:47.256Z,65.33
2023-02-24T06:02:47.119Z,65.83
2023-02-24T06:03:47.112Z,67.59
2023-02-24T06:04:47.092Z,67.72
2023-02-24T06:05:51.787Z,64.06
2023-02-24T06:06:47.075Z,68.19
2023-02-24T06:07:47.270Z,65.40
2023-02-24T06:08:48.870Z,65.69
2023-02-24T06:09:47.051Z,67.51
2023-02-24T06:10:56.794Z,68.93
2023-02-24T06:11:48.878Z,68.16
2023-02-24T06:12:50.789Z,67.13
2023-02-24T06:13:49.825Z,69.46
2023-02-24T06:14:47.017Z,68.28
2023-02-24T06:15:46.999Z,68.82
2023-02-24T06:16:47.107Z,70.01
2023-02-24T06:17:46.986Z,66.67
2023-02-24T06:18:46.979Z,69.20
2023-02-24T06:19:46.963Z,69.72
2023-02-24T06:20:46.970Z,69.33
2023-02-24T06:21:47.804Z,70.45
2023-02-24T06:22:46.943Z,70.32
2023-02-24T06:23:46.927Z,70.44
2023-02-24T06:24:46.926Z,70.31
2023-02-24T06:25:46.925Z,68.64
2023-02-24T06:26:46.930Z,70.58
2023-02-24T06:27:46.916Z,68.39
2023-02-24T06:28:46.905Z,67.71
2023-02-24T06:29:46.918Z,69.85
2023-02-24T06:30:46.976Z,69.34
2023-02-24T06:31:46.965Z,70.14
2023-02-24T06:32:46.965Z,70.94
2023-02-24T06:33:46.859Z,68.90
2023-02-24T06:34:46.908Z,69.42
2023-02-24T06:35:46.856Z,69.07
2023-02-24T06:36:46.834Z,72.42
2023-02-24T06:37:46.852Z,73.87
2023-02-24T06:38:46.869Z,68.57
2023-02-24T06:39:46.819Z,72.10
2023-02-24T06:40:46.803Z,69.94
2023-02-24T06:41:46.796Z,69.24
2023-02-24T06:42:46.908Z,69.73
2023-02-24T06:43:46.795Z,69.86
2023-02-24T06:44:46.803Z,66.59
2023-02-24T06:45:46.814Z,68.04
2023-02-24T06:46:46.775Z,69.05
2023-02-24T06:47:46.753Z,70.33
2023-02-24T06:48:46.739Z,69.37
2023-02-24T06:49:46.737Z,67.64
2023-02-24T06:50:46.724Z,65.85
2023-02-24T06:51:46.715Z,70.52
2023-02-24T06:52:46.788Z,71.65
2023-02-24T06:53:46.694Z,70.79
2023-02-24T06:54:47.691Z,69.61
2023-02-24T06:55:46.690Z,69.01
2023-02-24T06:56:46.676Z,69.70
2023-02-24T06:57:46.674Z,68.97
2023-02-24T06:58:48.375Z,68.49
2023-02-24T06:59:47.657Z,69.61
2023-02-24T07:00:46.672Z,68.39
2023-02-24T07:01:47.401Z,67.00
2023-02-24T07:02:46.634Z,69.46
2023-02-24T07:03:46.640Z,68.92
2023-02-24T07:04:46.617Z,71.07
2023-02-24T07:05:46.615Z,68.03
2023-02-24T07:06:46.591Z,67.55
2023-02-24T07:07:46.588Z,68.01
2023-02-24T07:08:46.580Z,65.95
2023-02-24T07:09:46.585Z,68.82
2023-02-24T07:10:46.561Z,68.62
2023-02-24T07:11:46.945Z,65.95
2023-02-24T07:12:47.561Z,66.45
2023-02-24T07:13:46.541Z,66.36
2023-02-24T07:14:46.536Z,69.55
2023-02-24T07:15:46.521Z,69.16
2023-02-24T07:16:46.533Z,66.65
2023-02-24T07:17:47.682Z,67.76
2023-02-24T07:18:47.504Z,67.95
2023-02-24T07:19:46.496Z,68.63
2023-02-24T07:20:46.496Z,67.15
2023-02-24T07:21:46.497Z,68.28
2023-02-24T07:22:46.472Z,68.78
2023-02-24T07:23:46.492Z,69.20
2023-02-24T07:24:46.729Z,68.22
2023-02-24T07:25:46.528Z,65.22
2023-02-24T07:26:47.415Z,67.90
2023-02-24T07:27:48.399Z,68.11
2023-02-24T07:28:48.073Z,66.76
2023-02-24T07:29:48.419Z,69.10
2023-02-24T07:30:49.504Z,69.63
2023-02-24T07:31:47.586Z,69.15
2023-02-24T07:32:47.429Z,67.63
2023-02-24T07:33:46.413Z,68.19
2023-02-24T07:34:46.383Z,68.79
2023-02-24T07:35:46.389Z,67.86
2023-02-24T07:36:46.360Z,67.01
2023-02-24T07:37:46.357Z,67.74
2023-02-24T07:38:46.352Z,66.70
2023-02-24T07:39:46.350Z,67.60
2023-02-24T07:40:46.333Z,67.14
2023-02-24T07:41:46.319Z,67.70
2023-02-24T07:42:46.324Z,68.61
2023-02-24T07:43:46.316Z,68.53
2023-02-24T07:44:46.675Z,65.59
2023-02-24T07:45:46.342Z,67.43
2023-02-24T07:46:46.313Z,68.48
2023-02-24T07:47:46.276Z,66.49
2023-02-24T07:48:46.289Z,67.54
2023-02-24T07:49:46.913Z,67.83
2023-02-24T07:50:46.254Z,67.22
2023-02-24T07:51:46.247Z,69.08
2023-02-24T07:52:46.235Z,66.79
2023-02-24T07:53:46.223Z,69.34
2023-02-24T07:54:46.222Z,68.72
2023-02-24T07:55:46.212Z,68.66
2023-02-24T07:56:46.268Z,70.07
2023-02-24T07:57:46.200Z,67.88
2023-02-24T07:58:46.186Z,67.09
2023-02-24T07:59:46.177Z,68.22
2023-02-24T08:00:46.163Z,68.55
2023-02-24T08:01:46.181Z,67.35
2023-02-24T08:02:46.249Z,69.15
2023-02-24T08:03:46.147Z,69.17
2023-02-24T08:04:46.136Z,67.01
2023-02-24T08:05:46.175Z,65.52
2023-02-24T08:06:47.960Z,66.02
2023-02-24T08:07:47.115Z,67.76
2023-02-24T08:08:46.104Z,62.95
2023-02-24T08:09:46.492Z,64.27
2023-02-24T08:10:46.097Z,64.61
2023-02-24T08:11:46.088Z,65.24
2023-02-24T08:12:46.073Z,67.80
2023-02-24T08:13:47.905Z,65.82
2023-02-24T08:14:46.063Z,66.25
2023-02-24T08:17:52.899Z,66.71
2023-02-24T08:18:54.768Z,70.70
2023-02-24T08:19:53.958Z,69.18
2023-02-24T08:20:53.976Z,70.62
2023-02-24T08:21:53.965Z,65.83
2023-02-24T08:22:53.938Z,66.77
2023-02-24T08:23:53.928Z,68.34
2023-02-24T08:24:53.912Z,68.97
2023-02-24T08:25:53.941Z,68.42
2023-02-24T08:26:53.895Z,63.59
2023-02-24T08:28:06.356Z,65.64
2023-02-24T08:28:55.888Z,66.94
2023-02-24T08:29:53.954Z,65.66
2023-02-24T08:30:53.995Z,67.29
2023-02-24T08:31:53.966Z,67.74
2023-02-24T08:32:53.923Z,67.48
2023-02-24T08:33:53.864Z,66.99
2023-02-24T08:34:54.830Z,67.16
2023-02-24T08:35:53.819Z,67.77
2023-02-24T08:36:54.831Z,68.12
2023-02-24T08:37:53.823Z,68.31
2023-02-24T08:38:53.797Z,67.91
2023-02-24T08:39:53.790Z,66.40
2023-02-24T08:40:53.795Z,65.65
2023-02-24T08:41:53.882Z,66.44
2023-02-24T08:42:53.763Z,65.83
2023-02-24T08:43:53.769Z,65.74
2023-02-24T08:44:53.770Z,66.68
2023-02-24T08:45:53.742Z,66.55
2023-02-24T08:46:53.865Z,66.87
2023-02-24T08:47:53.751Z,64.61
2023-02-24T08:48:53.722Z,65.24
2023-02-24T08:49:53.730Z,67.92
2023-02-24T08:50:53.719Z,67.01
2023-02-24T08:51:54.265Z,67.13
2023-02-24T08:52:54.272Z,67.42
2023-02-24T08:53:53.698Z,68.29
2023-02-24T08:54:53.676Z,66.71
2023-02-24T08:55:53.670Z,66.54
2023-02-24T08:56:53.662Z,65.85
2023-02-24T08:57:53.825Z,65.68
2023-02-24T08:58:54.652Z,67.94
2023-02-24T08:59:55.378Z,65.45
2023-02-24T09:00:53.677Z,66.65
2023-02-24T09:02:04.388Z,67.58
2023-02-24T09:02:56.315Z,66.18
2023-02-24T09:03:54.270Z,68.31
2023-02-24T09:04:53.622Z,65.93
2023-02-24T09:05:53.590Z,65.23
2023-02-24T09:06:57.688Z,64.21
2023-02-24T09:07:54.841Z,64.91
2023-02-24T09:08:53.566Z,65.32
2023-02-24T09:09:53.572Z,64.10
2023-02-24T09:10:53.556Z,67.09
2023-02-24T09:11:53.555Z,63.58
2023-02-24T09:12:53.578Z,64.74
2023-02-24T09:13:53.572Z,65.96
2023-02-24T09:14:53.507Z,64.57
2023-02-24T09:15:53.631Z,66.15
2023-02-24T09:16:53.521Z,69.00
2023-02-24T09:17:53.506Z,65.85
2023-02-24T09:18:54.348Z,64.95
2023-02-24T09:19:53.502Z,65.09
2023-02-24T09:20:53.468Z,66.59
2023-02-24T09:21:53.450Z,67.38
2023-02-24T09:22:53.442Z,66.75
2023-02-24T09:23:53.449Z,67.25
2023-02-24T09:24:53.423Z,66.21
2023-02-24T09:25:53.417Z,64.09
2023-02-24T09:26:53.428Z,71.05
2023-02-24T09:27:53.428Z,67.93
2023-02-24T09:28:53.420Z,65.30
2023-02-24T09:29:53.380Z,65.01
2023-02-24T09:30:53.773Z,66.87
2023-02-24T09:31:53.466Z,64.84
2023-02-24T09:32:54.546Z,66.12
2023-02-24T09:33:53.364Z,66.87
2023-02-24T09:34:53.344Z,67.12
2023-02-24T09:35:53.333Z,65.92
2023-02-24T09:36:53.325Z,66.42
2023-02-24T09:37:53.327Z,64.99
2023-02-24T09:38:53.303Z,64.29
2023-02-24T09:39:53.343Z,65.21
2023-02-24T09:40:53.345Z,65.97
2023-02-24T09:41:53.375Z,64.14
2023-02-24T09:42:53.295Z,67.37
2023-02-24T09:43:53.276Z,65.57
2023-02-24T09:44:53.279Z,63.60
2023-02-24T09:45:53.401Z,64.42
2023-02-24T09:46:53.410Z,64.90
2023-02-24T09:47:53.242Z,65.94
2023-02-24T09:48:53.232Z,65.66
2023-02-24T09:49:53.217Z,65.68
2023-02-24T09:51:02.496Z,63.63
2023-02-24T09:51:55.226Z,65.23
2023-02-24T09:52:57.576Z,64.70
2023-02-24T09:53:56.934Z,65.62
2023-02-24T09:54:53.195Z,67.77
2023-02-24T09:55:53.175Z,64.87
2023-02-24T09:56:53.171Z,65.64
2023-02-24T09:57:53.160Z,64.87
2023-02-24T09:58:53.229Z,66.23
2023-02-24T09:59:53.161Z,66.64
2023-02-24T10:00:53.154Z,65.31
2023-02-24T10:01:53.199Z,65.93
2023-02-24T10:02:53.140Z,64.85
2023-02-24T10:03:53.128Z,66.68
2023-02-24T10:04:53.117Z,68.08
2023-02-24T10:05:53.096Z,66.55
2023-02-24T10:06:53.083Z,63.39
2023-02-24T10:07:53.094Z,63.10
2023-02-24T10:08:53.139Z,65.29
2023-02-24T10:09:53.072Z,64.46
2023-02-24T10:10:53.056Z,64.10
2023-02-24T10:11:53.079Z,64.39
2023-02-24T10:12:53.091Z,64.54
2023-02-24T10:13:54.046Z,63.48
2023-02-24T10:14:53.791Z,65.61
2023-02-24T10:15:56.962Z,65.12
2023-02-24T10:16:54.834Z,66.51
2023-02-24T10:17:53.001Z,65.65
2023-02-24T10:18:53.006Z,66.91
2023-02-24T10:19:52.993Z,67.93
2023-02-24T10:20:53.910Z,72.84
2023-02-24T10:21:52.971Z,65.95
2023-02-24T10:22:52.980Z,67.00
2023-02-24T10:23:54.847Z,65.29
2023-02-24T10:24:54.001Z,66.46
2023-02-24T10:25:52.959Z,63.98
2023-02-24T10:27:00.710Z,65.62
2023-02-24T10:27:56.893Z,65.48
2023-02-24T10:28:54.895Z,65.83
2023-02-24T10:29:52.906Z,66.64
2023-02-24T10:30:52.993Z,65.92
2023-02-24T10:31:53.176Z,65.10
2023-02-24T10:32:53.055Z,66.85
2023-02-24T10:33:52.880Z,67.17
2023-02-24T10:34:52.858Z,65.71
2023-02-24T10:35:52.857Z,67.62
2023-02-24T10:36:52.852Z,68.01
2023-02-24T10:37:52.849Z,65.13
2023-02-24T10:38:52.834Z,64.77
2023-02-24T10:39:52.821Z,65.05
2023-02-24T10:40:52.847Z,66.98
2023-02-24T10:41:52.964Z,65.34
2023-02-24T10:42:52.811Z,65.42
2023-02-24T10:43:52.861Z,65.71
2023-02-24T10:45:01.417Z,66.33
2023-02-24T10:45:54.843Z,65.95
2023-02-24T10:46:52.863Z,64.89
2023-02-24T10:47:52.763Z,65.51
2023-02-24T10:48:52.896Z,63.76
2023-02-24T10:49:52.756Z,66.57
2023-02-24T10:50:56.466Z,67.37
2023-02-24T10:51:53.742Z,64.75
2023-02-24T10:52:53.301Z,66.83
2023-02-24T10:53:56.356Z,64.77
2023-02-24T10:54:54.756Z,64.69
2023-02-24T10:55:54.406Z,66.49
2023-02-24T10:56:52.696Z,67.11
2023-02-24T10:57:58.970Z,64.68
2023-02-24T10:58:54.676Z,65.97
2023-02-24T10:59:53.440Z,66.04
2023-02-24T11:00:52.666Z,64.73
2023-02-24T11:01:52.819Z,64.62
2023-02-24T11:02:52.680Z,68.05
2023-02-24T11:03:52.637Z,65.39
2023-02-24T11:04:52.617Z,64.89
2023-02-24T11:05:52.618Z,68.55
2023-02-24T11:06:54.410Z,66.57
2023-02-24T11:07:53.316Z,65.35
2023-02-24T11:08:52.605Z,67.99
2023-02-24T11:09:52.669Z,65.90
2023-02-24T11:10:52.604Z,65.43
2023-02-24T11:11:52.579Z,63.47
2023-02-24T11:13:00.891Z,66.16
2023-02-24T11:13:54.630Z,64.89
2023-02-24T11:14:52.544Z,64.53
2023-02-24T11:15:52.575Z,67.39
2023-02-24T11:16:52.527Z,66.65
2023-02-24T11:17:52.542Z,64.78
2023-02-24T11:18:52.508Z,68.13
2023-02-24T11:19:52.500Z,66.53
2023-02-24T11:20:52.490Z,70.94
2023-02-24T11:21:52.486Z,67.68
2023-02-24T11:22:52.492Z,66.04
2023-02-24T11:23:52.475Z,66.62
2023-02-24T11:24:53.313Z,66.08
2023-02-24T11:27:39.860Z,65.26
2023-02-24T11:28:39.869Z,66.52
2023-02-24T11:29:40.942Z,63.61
2023-02-24T11:30:41.106Z,66.81
2023-02-24T11:31:41.232Z,64.86
2023-02-24T11:32:47.808Z,64.88
2023-02-24T11:33:46.820Z,67.28
2023-02-24T11:34:40.920Z,68.39
2023-02-24T11:35:40.900Z,67.86
2023-02-24T11:36:40.896Z,65.92
2023-02-24T11:37:43.147Z,63.96
2023-02-24T11:38:41.878Z,64.34
2023-02-24T11:39:40.869Z,66.23
2023-02-24T11:40:41.738Z,64.80
2023-02-24T11:41:40.867Z,66.74
2023-02-24T11:42:40.850Z,64.61
2023-02-24T11:43:40.849Z,65.40
2023-02-24T11:44:40.838Z,63.66
2023-02-24T11:45:40.859Z,65.34
2023-02-24T11:46:41.397Z,63.89
2023-02-24T11:47:40.818Z,63.73
2023-02-24T11:48:40.792Z,63.85
2023-02-24T11:49:40.792Z,66.99
2023-02-24T11:50:40.779Z,64.07
2023-02-24T11:51:40.789Z,64.68
2023-02-24T11:52:40.789Z,64.57
2023-02-24T11:53:40.791Z,68.80
2023-02-24T11:54:40.751Z,67.78
2023-02-24T11:55:40.741Z,65.82
2023-02-24T11:56:40.762Z,67.06
2023-02-24T11:57:40.723Z,66.66
2023-02-24T11:58:40.767Z,67.11
2023-02-24T11:59:40.725Z,66.47
2023-02-24T12:00:47.984Z,67.27
2023-02-24T12:01:43.741Z,65.29
2023-02-24T12:02:41.741Z,67.31
2023-02-24T12:03:40.683Z,68.80
2023-02-24T12:04:40.686Z,67.71
2023-02-24T12:05:40.726Z,65.13
2023-02-24T12:06:45.253Z,64.18
2023-02-24T12:10:16.108Z,64.57
2023-02-24T12:11:07.077Z,66.04
2023-02-24T12:12:04.586Z,68.01
2023-02-24T12:13:04.571Z,65.56
2023-02-24T12:14:07.068Z,66.35
2023-02-24T12:15:04.154Z,66.74
2023-02-24T12:16:04.201Z,66.22
2023-02-24T12:17:04.192Z,65.34
2023-02-24T12:18:04.130Z,67.47
2023-02-24T12:19:04.123Z,67.45
2023-02-24T12:20:04.116Z,66.20
2023-02-24T12:21:04.103Z,68.15
2023-02-24T12:22:04.096Z,68.71
2023-02-24T12:23:04.085Z,66.00
2023-02-24T12:24:04.084Z,67.87
2023-02-24T12:25:05.051Z,68.37
2023-02-24T12:26:04.064Z,65.03
2023-02-24T12:27:04.066Z,66.38
2023-02-24T12:28:04.073Z,63.77
2023-02-24T12:29:04.049Z,66.68
2023-02-24T12:30:04.032Z,65.66
2023-02-24T12:31:04.132Z,66.27
2023-02-24T12:32:04.151Z,64.00
2023-02-24T12:33:04.067Z,66.78
2023-02-24T12:34:03.999Z,63.38
2023-02-24T12:35:05.552Z,65.67
2023-02-24T12:36:05.996Z,63.25
2023-02-24T12:37:05.583Z,65.08
2023-02-24T12:38:05.580Z,64.24
2023-02-24T12:39:07.589Z,64.24
2023-02-24T12:40:05.572Z,64.79
2023-02-24T12:41:05.556Z,65.67
2023-02-24T12:42:03.951Z,65.43
2023-02-24T12:43:03.923Z,64.60
2023-02-24T12:44:03.911Z,71.43
2023-02-24T12:45:05.000Z,65.87
2023-02-24T12:46:05.033Z,62.71
2023-02-24T12:47:04.984Z,63.47
2023-02-24T12:48:05.015Z,63.39
2023-02-24T12:49:04.975Z,61.36
2023-02-24T12:50:04.961Z,65.36
2023-02-24T12:51:04.963Z,63.18
2023-02-24T12:52:04.948Z,65.20
2023-02-24T12:53:04.929Z,65.04
2023-02-24T12:54:04.918Z,64.29
2023-02-24T12:55:04.937Z,66.57
2023-02-24T12:56:04.912Z,67.59
2023-02-24T12:57:04.913Z,63.26
2023-02-24T12:58:04.885Z,62.58
2023-02-24T12:59:04.919Z,65.61
2023-02-24T13:00:04.879Z,66.39
2023-02-24T13:01:04.891Z,65.94
2023-02-24T13:02:04.908Z,64.54